Time;durP1;ratioP1;P1;durP2;ratioP2;P2;SDS_P1;SDS_P2;PMS_P1;PMS_P2;Temp;Humidity;BMP_temperature;BMP_pressure;BME280_temperature;BME280_humidity;BME280_pressure;Samples;Min_cycle;Max_cycle;Signal;HPM_P1;HPM_P2
2021/12/20 00:01:02;;;;;;;;;23.50;22.75;;;;;6.94;73.17;102406.22;5038816;28;45421;-51
2021/12/20 00:03:28;;;;;;;;;37.50;28.25;;;;;6.95;72.80;102409.72;5038826;28;45305;-52
2021/12/20 00:05:53;;;;;;;;;25.25;20.25;;;;;6.94;72.89;102406.22;5038294;28;47073;-52
2021/12/20 00:08:18;;;;;;;;;36.75;27.75;;;;;6.95;73.26;102399.13;5038260;28;45369;-54
2021/12/20 00:10:44;;;;;;;;;35.75;24.00;;;;;6.98;73.18;102396.34;5038451;28;45646;-49
2021/12/20 00:13:09;;;;;;;;;34.75;27.00;;;;;6.89;73.01;102389.75;5038445;28;45389;-53
2021/12/20 00:15:35;;;;;;;;;31.75;25.50;;;;;6.97;72.87;102405.22;5038266;28;45416;-54
2021/12/20 00:18:00;;;;;;;;;36.00;26.00;;;;;6.97;72.73;102392.84;5038387;28;45417;-51
2021/12/20 00:20:26;;;;;;;;;32.00;26.00;;;;;6.98;72.54;102391.88;5038736;28;45377;-52
2021/12/20 00:22:51;;;;;;;;;31.00;22.75;;;;;6.99;73.19;102390.97;5038481;28;45353;-54
2021/12/20 00:25:17;;;;;;;;;23.50;16.00;;;;;6.99;72.93;102383.03;5038283;28;45913;-54
2021/12/20 00:27:42;;;;;;;;;33.50;28.25;;;;;6.99;73.06;102379.50;5038264;28;45317;-53
2021/12/20 00:30:10;;;;;;;;;33.75;21.50;;;;;6.98;73.09;102385.75;5038219;28;45217;-51
2021/12/20 00:32:36;;;;;;;;;28.00;22.00;;;;;7.00;72.89;102387.38;5038387;28;45566;-50
2021/12/20 00:35:03;;;;;;;;;33.25;23.25;;;;;7.02;73.51;102383.78;5037997;28;45998;-53
2021/12/20 00:40:23;;;;;;;;;30.75;24.75;;;;;6.95;73.30;102372.69;4956942;28;45474;-50
2021/12/20 00:42:57;;;;;;;;;24.25;22.75;;;;;7.01;72.97;102382.94;4957090;28;45297;-51
2021/12/20 00:45:26;;;;;;;;;32.00;27.00;;;;;6.99;72.70;102390.09;4956824;28;47279;-53
2021/12/20 00:47:52;;;;;;;;;32.50;22.75;;;;;6.98;73.25;102386.59;4956835;28;45500;-52
2021/12/20 00:50:20;;;;;;;;;21.00;18.75;;;;;6.87;73.07;102359.88;4957053;28;45309;-52
2021/12/20 00:52:46;;;;;;;;;22.50;16.50;;;;;6.95;72.63;102384.13;4957024;28;45544;-52
2021/12/20 00:55:16;;;;;;;;;27.00;16.75;;;;;6.95;72.75;102376.22;4940596;28;45538;-54
2021/12/20 00:57:43;;;;;;;;;23.75;20.25;;;;;6.95;72.48;102380.63;4956467;28;45409;-54
2021/12/20 01:00:10;;;;;;;;;25.50;21.25;;;;;6.97;72.51;102381.41;4956632;28;45522;-51
2021/12/20 01:02:35;;;;;;;;;19.25;19.25;;;;;6.97;73.02;102379.59;4956990;28;45435;-54
2021/12/20 01:05:02;;;;;;;;;21.75;17.50;;;;;6.95;72.41;102377.97;4956408;28;46161;-51
2021/12/20 01:07:28;;;;;;;;;19.25;14.75;;;;;6.93;72.91;102374.56;4956377;28;45521;-52
2021/12/20 01:09:57;;;;;;;;;33.00;20.25;;;;;6.91;73.30;102366.72;4956449;28;45401;-52
2021/12/20 01:12:26;;;;;;;;;30.00;21.00;;;;;6.79;72.59;102348.88;4956682;28;45630;-53
2021/12/20 01:14:59;;;;;;;;;23.00;21.50;;;;;6.90;72.70;102372.94;4956151;28;46412;-51
2021/12/20 01:17:25;;;;;;;;;25.25;19.00;;;;;6.91;72.69;102365.84;5021420;28;45391;-53
2021/12/20 01:19:50;;;;;;;;;25.25;15.50;;;;;6.91;73.05;102364.06;5037494;28;45307;-52
2021/12/20 01:22:16;;;;;;;;;23.00;22.00;;;;;6.88;72.76;102361.59;5037697;28;45410;-54
2021/12/20 01:24:41;;;;;;;;;32.50;18.25;;;;;6.90;72.95;102356.22;5037258;28;45968;-50
2021/12/20 01:27:07;;;;;;;;;26.25;20.75;;;;;6.91;72.73;102352.63;5037199;28;45372;-59
2021/12/20 01:29:32;;;;;;;;;27.00;20.75;;;;;6.93;73.19;102354.25;5037669;28;45371;-54
2021/12/20 01:31:58;;;;;;;;;24.50;20.50;;;;;6.97;72.54;102352.31;5037599;28;45414;-52
2021/12/20 01:34:23;;;;;;;;;12.50;12.50;;;;;6.96;72.55;102356.75;5037116;28;46138;-53
2021/12/20 01:36:48;;;;;;;;;27.25;23.50;;;;;6.83;72.83;102336.34;5037209;28;45353;-53
2021/12/20 01:39:14;;;;;;;;;21.00;11.50;;;;;6.98;73.12;102357.50;5036980;28;45977;-51
2021/12/20 01:41:41;;;;;;;;;33.50;22.75;;;;;6.97;73.21;102355.78;5037421;28;45416;-53
2021/12/20 01:44:07;;;;;;;;;27.75;23.50;;;;;6.97;72.58;102357.59;5036858;28;45913;-50
2021/12/20 01:46:33;;;;;;;;;15.50;12.25;;;;;6.94;73.19;102360.41;5037085;28;45180;-50
2021/12/20 01:49:00;;;;;;;;;20.25;19.25;;;;;6.83;72.71;102339.84;5037071;28;45321;-53
2021/12/20 01:54:17;;;;;;;;;22.00;15.50;;;;;6.90;72.61;102348.28;4994320;28;45881;-52
2021/12/20 01:56:45;;;;;;;;;25.00;18.00;;;;;6.77;72.51;102336.66;4994860;28;45465;-53
2021/12/20 01:59:11;;;;;;;;;24.50;20.00;;;;;6.85;72.40;102339.75;4994990;28;45323;-53
2021/12/20 02:01:37;;;;;;;;;25.50;18.50;;;;;6.75;72.75;102327.03;4995031;28;45430;-53
2021/12/20 02:04:06;;;;;;;;;29.00;19.75;;;;;6.86;72.38;102344.09;4994935;28;45394;-52
2021/12/20 02:06:38;;;;;;;;;31.75;23.25;;;;;6.83;72.22;102338.97;4994855;28;45471;-53
2021/12/20 02:09:09;;;;;;;;;26.75;19.50;;;;;6.83;72.75;102337.19;4994548;28;45473;-53
2021/12/20 02:11:39;;;;;;;;;30.50;23.25;;;;;6.80;72.51;102334.69;4994993;28;45507;-53
2021/12/20 02:14:06;;;;;;;;;31.50;19.25;;;;;6.84;72.45;102332.75;4994616;28;45411;-52
2021/12/20 02:16:32;;;;;;;;;38.00;23.25;;;;;6.88;72.31;102337.78;4994535;28;45568;-51
2021/12/20 02:19:03;;;;;;;;;30.50;22.50;;;;;6.88;72.24;102334.28;4995478;28;45426;-53
2021/12/20 02:21:28;;;;;;;;;40.25;28.75;;;;;6.92;72.09;102341.13;4998466;28;45577;-54
2021/12/20 02:23:54;;;;;;;;;33.25;27.50;;;;;6.92;72.37;102333.19;4997905;28;45570;-53
2021/12/20 02:26:23;;;;;;;;;27.25;24.75;;;;;6.80;72.17;102315.34;4998163;28;45478;-53
2021/12/20 02:28:50;;;;;;;;;35.75;25.25;;;;;6.93;72.03;102330.44;4998186;28;45469;-51
2021/12/20 02:39:18;;;;;;;;;34.75;27.25;;;;;6.91;72.77;102318.22;5039749;28;45392;-53
2021/12/20 02:41:44;;;;;;;;;35.25;24.25;;;;;7.00;72.41;102333.63;5039978;28;45388;-54
2021/12/20 02:44:18;;;;;;;;;37.25;29.00;;;;;6.89;71.80;102317.47;5039879;28;46339;-50
2021/12/20 02:46:52;;;;;;;;;34.75;30.00;;;;;6.99;71.85;102329.25;5039739;28;45286;-51
2021/12/20 02:49:20;;;;;;;;;32.00;27.25;;;;;6.96;72.32;102324.13;5039888;28;45308;-51
2021/12/20 02:51:47;;;;;;;;;30.75;24.00;;;;;6.97;72.26;102331.13;5040262;28;45313;-52
2021/12/20 02:54:13;;;;;;;;;36.75;26.00;;;;;6.95;71.61;102323.28;5039635;28;45368;-53
2021/12/20 02:56:39;;;;;;;;;38.75;28.25;;;;;6.94;72.34;102324.19;5039705;28;45514;-52
2021/12/20 02:59:07;;;;;;;;;47.00;33.50;;;;;6.96;72.27;102322.34;5040137;28;45329;-50
2021/12/20 03:01:34;;;;;;;;;40.50;28.50;;;;;6.95;72.17;102319.75;5040220;28;45486;-55
2021/12/20 03:04:01;;;;;;;;;35.75;26.25;;;;;6.98;72.11;102323.09;5039692;28;46337;-52
2021/12/20 03:06:39;;;;;;;;;49.25;31.00;;;;;7.00;71.80;102318.59;5039732;28;45813;-51
2021/12/20 03:09:06;;;;;;;;;45.25;33.25;;;;;7.00;72.19;102312.44;5039655;28;45434;-51
2021/12/20 03:11:32;;;;;;;;;30.25;24.50;;;;;6.99;72.60;102314.25;5039657;28;45483;-51
2021/12/20 03:14:10;;;;;;;;;41.50;33.25;;;;;6.95;71.92;102295.94;5039679;28;46056;-50
2021/12/20 03:16:35;;;;;;;;;40.50;28.75;;;;;7.00;72.42;102301.88;5038996;28;45338;-49
2021/12/20 03:19:02;;;;;;;;;43.50;28.75;;;;;6.94;72.02;102286.31;5039459;28;45464;-53
2021/12/20 03:21:28;;;;;;;;;42.25;31.50;;;;;6.92;71.90;102280.28;5039678;28;45398;-55
2021/12/20 03:23:53;;;;;;;;;35.75;30.00;;;;;7.02;71.98;102293.84;5039256;28;46174;-52
2021/12/20 03:26:18;;;;;;;;;45.50;34.75;;;;;7.02;71.98;102293.84;5039371;28;45459;-53
2021/12/20 03:28:44;;;;;;;;;47.75;34.00;;;;;7.02;71.93;102285.91;5039711;28;45332;-52
2021/12/20 03:31:09;;;;;;;;;35.75;29.25;;;;;7.03;71.63;102293.72;5039571;28;45477;-52
2021/12/20 03:33:35;;;;;;;;;44.75;35.00;;;;;7.00;71.63;102296.56;5039286;28;46140;-54
2021/12/20 03:36:00;;;;;;;;;43.50;28.75;;;;;7.02;71.79;102289.38;5039263;28;45372;-52
2021/12/20 03:38:26;;;;;;;;;26.50;23.50;;;;;7.03;72.07;102287.59;5039219;28;45223;-50
2021/12/20 03:40:51;;;;;;;;;41.25;31.25;;;;;7.03;72.00;102285.78;5039110;28;45480;-54
2021/12/20 03:43:18;;;;;;;;;39.25;34.00;;;;;7.01;71.53;102292.97;5038811;28;46882;-51
2021/12/20 03:45:48;;;;;;;;;46.75;37.00;;;;;7.00;71.52;102280.69;5039136;28;45294;-52
2021/12/20 03:48:14;;;;;;;;;41.00;28.00;;;;;7.06;72.16;102277.69;5039109;28;45432;-49
2021/12/20 03:50:39;;;;;;;;;40.75;37.75;;;;;7.07;71.78;102275.91;5039509;28;45381;-52
2021/12/20 03:53:05;;;;;;;;;46.25;32.75;;;;;7.08;71.44;102282.88;5038871;28;47027;-53
2021/12/20 03:55:30;;;;;;;;;46.50;33.75;;;;;7.05;71.83;102278.66;5038724;28;45253;-52
2021/12/20 03:57:55;;;;;;;;;43.50;36.25;;;;;7.07;71.70;102282.03;5039247;28;45406;-54
2021/12/20 04:00:21;;;;;;;;;26.50;21.50;;;;;7.06;72.38;102272.41;5039062;28;45480;-51
2021/12/20 04:02:47;;;;;;;;;38.25;32.75;;;;;6.98;72.28;102270.19;5038772;28;46181;-51
2021/12/20 04:05:14;;;;;;;;;37.25;31.00;;;;;7.00;71.56;102280.69;5038651;28;45385;-51
2021/12/20 04:07:39;;;;;;;;;40.25;31.25;;;;;6.99;72.19;102279.84;5038869;28;45172;-52
2021/12/20 04:10:06;;;;;;;;;47.50;33.25;;;;;6.96;72.03;102280.00;5039023;28;45406;-53
2021/12/20 04:12:32;;;;;;;;;43.25;32.25;;;;;6.97;71.83;102273.78;5038648;28;46500;-53
2021/12/20 04:14:57;;;;;;;;;45.25;33.00;;;;;6.97;71.82;102278.22;5038727;28;45301;-49
2021/12/20 04:17:23;;;;;;;;;45.50;37.00;;;;;6.98;71.89;102282.56;5038472;28;45444;-52
2021/12/20 04:19:48;;;;;;;;;53.00;34.50;;;;;6.98;71.70;102286.06;5038675;28;45469;-50
2021/12/20 04:22:15;;;;;;;;;55.50;35.75;;;;;6.99;72.20;102290.44;5038421;28;46180;-51
2021/12/20 04:24:42;;;;;;;;;39.00;31.00;;;;;7.00;72.25;102286.84;5038447;28;45331;-51
2021/12/20 04:27:07;;;;;;;;;45.00;35.75;;;;;6.98;71.93;102296.63;5020312;28;45412;-51
2021/12/20 04:29:33;;;;;;;;;45.75;35.50;;;;;7.00;71.76;102293.94;5038427;28;45414;-50
2021/12/20 04:31:59;;;;;;;;;44.00;32.75;;;;;7.00;71.56;102284.19;5038001;28;47032;-49
2021/12/20 04:34:25;;;;;;;;;47.00;37.75;;;;;7.00;72.21;102296.56;5038159;28;45389;-50
2021/12/20 04:36:51;;;;;;;;;47.25;36.25;;;;;6.95;72.13;102285.38;5038183;28;45298;-51
2021/12/20 04:39:20;;;;;;;;;37.50;34.50;;;;;6.96;72.19;102287.09;5038255;28;45452;-52
2021/12/20 04:41:46;;;;;;;;;54.00;38.75;;;;;6.97;71.38;102302.03;5037024;28;46147;-53
2021/12/20 04:44:11;;;;;;;;;55.75;37.75;;;;;6.91;72.21;102278.53;5038135;28;45440;-51
2021/12/20 04:46:36;;;;;;;;;44.25;29.50;;;;;6.96;71.96;102279.16;5038383;28;45445;-52
2021/12/20 04:49:03;;;;;;;;;39.00;31.25;;;;;6.95;72.09;102285.38;5038501;28;45228;-49
2021/12/20 04:51:28;;;;;;;;;55.50;43.00;;;;;6.95;71.74;102288.03;5036879;28;46453;-51
2021/12/20 04:53:53;;;;;;;;;42.00;30.50;;;;;6.94;71.63;102283.66;5038122;28;45373;-51
2021/12/20 04:56:19;;;;;;;;;34.75;28.00;;;;;6.92;72.27;102278.47;5037916;28;45595;-52
2021/12/20 04:58:44;;;;;;;;;43.25;27.25;;;;;6.87;71.51;102288.47;5038148;28;45297;-50
2021/12/20 05:01:09;;;;;;;;;40.25;28.25;;;;;6.85;72.04;102285.03;5037738;28;46176;-49
2021/12/20 05:03:35;;;;;;;;;38.00;27.25;;;;;6.81;71.58;102290.59;5037623;28;45400;-51
2021/12/20 05:06:00;;;;;;;;;42.25;29.50;;;;;6.80;71.46;102297.66;5038163;28;45373;-50
2021/12/20 05:08:33;;;;;;;;;39.00;25.25;;;;;6.80;72.03;102288.88;5037809;28;45372;-52
2021/12/20 05:10:59;;;;;;;;;31.00;23.50;;;;;6.81;71.87;102290.59;5037357;28;45298;-52
2021/12/20 05:13:24;;;;;;;;;35.75;30.25;;;;;6.78;71.97;102291.59;5037590;28;45415;-58
2021/12/20 05:15:50;;;;;;;;;33.00;22.25;;;;;6.79;71.68;102285.38;5037432;28;45860;-52
2021/12/20 05:18:15;;;;;;;;;33.25;24.25;;;;;6.74;72.23;102293.59;5037696;28;45436;-53
2021/12/20 05:20:41;;;;;;;;;38.75;28.50;;;;;6.71;71.66;102296.38;5037436;28;45670;-53
2021/12/20 05:23:07;;;;;;;;;36.25;29.25;;;;;6.70;71.90;102296.44;5037444;28;45450;-53
2021/12/20 05:25:33;;;;;;;;;37.50;26.00;;;;;6.71;71.63;102295.53;5037513;28;45388;-52
2021/12/20 05:27:59;;;;;;;;;22.00;16.75;;;;;6.71;72.06;102299.03;5037353;28;45467;-51
2021/12/20 05:30:24;;;;;;;;;27.00;25.25;;;;;6.70;71.62;102302.63;5037368;28;46166;-52
2021/12/20 05:32:50;;;;;;;;;26.00;18.00;;;;;6.69;71.97;102300.03;5037360;28;45308;-53
2021/12/20 05:35:16;;;;;;;;;29.00;24.50;;;;;6.68;71.99;102299.19;5037448;28;45853;-54
2021/12/20 05:37:42;;;;;;;;;34.25;27.50;;;;;6.65;72.03;102293.22;5037579;28;45410;-53
2021/12/20 05:40:10;;;;;;;;;25.25;18.25;;;;;6.64;71.77;102284.41;5037042;28;46267;-53
2021/12/20 05:42:36;;;;;;;;;29.50;19.25;;;;;6.55;72.16;102262.94;5037039;28;45556;-56
2021/12/20 05:45:04;;;;;;;;;26.00;22.25;;;;;6.60;71.99;102272.31;5037066;28;45439;-54
2021/12/20 05:47:29;;;;;;;;;37.00;30.50;;;;;6.70;72.33;102289.41;5036965;28;45389;-54
2021/12/20 05:49:54;;;;;;;;;32.75;23.25;;;;;6.71;71.92;102291.09;5036746;28;46492;-53
2021/12/20 05:52:20;;;;;;;;;40.25;25.25;;;;;6.74;71.52;102300.63;5036682;28;45425;-52
2021/12/20 05:54:46;;;;;;;;;19.00;15.25;;;;;6.74;71.47;102298.00;5035880;28;45386;-52
2021/12/20 05:57:11;;;;;;;;;37.50;26.75;;;;;6.60;71.69;102268.81;5037102;28;45377;-52
2021/12/20 05:59:37;;;;;;;;;30.75;23.50;;;;;6.73;71.94;102293.66;5036547;28;46115;-53
2021/12/20 06:02:04;;;;;;;;;27.25;16.50;;;;;6.73;71.44;102294.50;5036730;28;45308;-53
2021/12/20 06:04:30;;;;;;;;;35.00;22.50;;;;;6.65;71.09;102287.91;5036625;28;45345;-53
2021/12/20 06:06:55;;;;;;;;;35.75;27.00;;;;;6.66;71.12;102298.44;5036941;28;45173;-52
2021/12/20 06:09:21;;;;;;;;;35.00;23.00;;;;;6.52;71.68;102279.78;5036640;28;45382;-53
2021/12/20 06:11:46;;;;;;;;;26.75;18.25;;;;;6.60;71.67;102298.75;5036287;28;45470;-51
2021/12/20 06:14:12;;;;;;;;;39.00;25.00;;;;;6.59;71.39;102307.63;5036773;28;45401;-52
2021/12/20 06:16:37;;;;;;;;;27.00;21.25;;;;;6.58;71.35;102295.34;5036606;28;45408;-51
2021/12/20 06:19:03;;;;;;;;;23.00;19.75;;;;;6.60;71.44;102293.47;5036338;28;45993;-53
2021/12/20 06:21:29;;;;;;;;;35.25;24.25;;;;;6.59;71.40;102299.69;5036701;28;45476;-54
2021/12/20 06:23:54;;;;;;;;;30.25;22.50;;;;;6.59;71.08;102294.41;5036695;28;45880;-51
2021/12/20 06:26:23;;;;;;;;;27.50;23.00;;;;;6.58;71.11;102295.34;5036884;28;45445;-52
2021/12/20 06:28:50;;;;;;;;;25.75;22.50;;;;;6.59;70.90;102309.41;5018341;28;46193;-52
2021/12/20 06:31:15;;;;;;;;;19.50;16.50;;;;;6.61;71.10;102302.25;5036353;28;45420;-52
2021/12/20 06:33:41;;;;;;;;;38.25;25.25;;;;;6.59;71.28;102304.13;5036688;28;45354;-53
2021/12/20 06:36:06;;;;;;;;;24.25;18.25;;;;;6.59;71.21;102293.56;5036829;28;45549;-52
2021/12/20 06:38:32;;;;;;;;;16.50;15.75;;;;;6.61;70.89;102308.38;5036393;28;46330;-53
2021/12/20 06:40:58;;;;;;;;;40.75;23.50;;;;;6.60;71.29;102305.81;5036821;28;45294;-53
2021/12/20 06:43:24;;;;;;;;;29.50;19.50;;;;;6.62;71.12;102304.81;5036578;28;45499;-54
2021/12/20 06:45:50;;;;;;;;;31.00;20.25;;;;;6.62;71.07;102311.91;5036759;28;45376;-54
2021/12/20 06:48:15;;;;;;;;;25.75;21.50;;;;;6.47;71.21;102295.06;5036153;28;45456;-52
2021/12/20 06:50:41;;;;;;;;;12.50;11.00;;;;;6.62;71.07;102319.84;5036531;28;45413;-52
2021/12/20 06:53:06;;;;;;;;;38.00;25.25;;;;;6.60;71.62;102317.25;5036655;28;45274;-51
2021/12/20 06:55:33;;;;;;;;;29.75;24.50;;;;;6.61;71.60;102326.88;5036438;28;45599;-51
2021/12/20 06:57:58;;;;;;;;;29.50;20.50;;;;;6.62;71.28;102317.19;5035978;28;45353;-53
2021/12/20 07:00:24;;;;;;;;;28.00;20.75;;;;;6.54;71.06;102308.81;5035993;28;45288;-51
2021/12/20 07:02:49;;;;;;;;;32.00;25.50;;;;;6.63;71.87;102324.19;5036407;28;45250;-52
2021/12/20 07:05:15;;;;;;;;;40.00;30.75;;;;;6.63;70.98;102327.69;5037457;28;45266;-52
2021/12/20 07:07:41;;;;;;;;;35.50;21.25;;;;;6.55;71.19;102313.16;5039433;28;45372;-51
2021/12/20 07:10:07;;;;;;;;;28.75;23.25;;;;;6.50;71.25;102310.78;5039619;28;45457;-52
2021/12/20 07:12:37;;;;;;;;;26.25;23.25;;;;;6.59;71.14;102327.94;5039318;28;45479;-52
2021/12/20 07:15:05;;;;;;;;;36.00;24.50;;;;;6.55;70.89;102323.75;5039637;28;45449;-53
2021/12/20 07:17:31;;;;;;;;;41.50;29.25;;;;;6.52;70.90;102321.25;5038913;28;45617;-54
2021/12/20 07:19:58;;;;;;;;;34.00;30.25;;;;;6.48;71.18;102313.47;5039030;28;45238;-54
2021/12/20 07:22:24;;;;;;;;;29.75;24.25;;;;;6.45;71.31;102297.78;5039527;28;45393;-53
2021/12/20 07:24:49;;;;;;;;;45.25;34.25;;;;;6.54;71.02;102325.53;5039391;28;45361;-50
2021/12/20 07:27:18;;;;;;;;;30.75;26.75;;;;;6.54;71.17;102330.81;5038989;28;45476;-49
2021/12/20 07:29:43;;;;;;;;;40.50;25.25;;;;;6.56;71.20;102328.09;5038394;28;45448;-52
2021/12/20 07:32:11;;;;;;;;;42.75;26.25;;;;;6.55;71.23;102321.94;5039147;28;45217;-54
2021/12/20 07:34:36;;;;;;;;;32.00;24.00;;;;;6.60;71.03;102319.91;5039394;28;45358;-50
2021/12/20 07:37:02;;;;;;;;;40.00;29.00;;;;;6.61;71.24;102331.31;5039013;28;46072;-54
2021/12/20 07:39:27;;;;;;;;;32.50;26.75;;;;;6.57;70.99;102338.56;5039241;28;45371;-50
2021/12/20 07:41:53;;;;;;;;;28.00;25.25;;;;;6.41;71.31;102306.81;5040136;28;45432;-53
2021/12/20 07:44:20;;;;;;;;;33.00;23.75;;;;;6.59;71.56;102333.22;5039004;28;45571;-52
2021/12/20 07:46:46;;;;;;;;;42.50;26.50;;;;;6.50;71.52;102330.13;5039025;28;46220;-52
2021/12/20 07:49:11;;;;;;;;;27.50;22.25;;;;;6.58;70.96;102334.16;5038732;28;45254;-53
2021/12/20 07:51:37;;;;;;;;;34.50;21.75;;;;;6.57;70.78;102327.97;5039059;28;45440;-54
2021/12/20 07:54:02;;;;;;;;;26.75;24.50;;;;;6.58;70.82;102326.22;5039248;28;45358;-51
2021/12/20 07:56:28;;;;;;;;;29.00;23.25;;;;;6.59;71.07;102323.50;5038560;28;46104;-53
2021/12/20 07:58:53;;;;;;;;;30.25;25.50;;;;;6.59;70.96;102326.13;5038547;28;45364;-51
2021/12/20 08:01:19;;;;;;;;;31.25;23.50;;;;;6.60;71.31;102330.47;5038781;28;45314;-51
2021/12/20 08:03:45;;;;;;;;;26.75;22.50;;;;;6.51;71.06;102315.09;5039049;28;45378;-54
2021/12/20 08:06:10;;;;;;;;;27.50;22.00;;;;;6.62;70.94;102331.25;5038631;28;46227;-52
2021/12/20 08:08:36;;;;;;;;;33.50;25.25;;;;;6.61;71.02;102334.81;5038466;28;45230;-55
2021/12/20 08:11:02;;;;;;;;;28.75;24.00;;;;;6.63;71.38;102326.81;5040537;28;45242;-52
2021/12/20 08:13:31;;;;;;;;;37.00;23.50;;;;;6.64;70.67;102333.81;5041167;28;45332;-56
2021/12/20 08:15:56;;;;;;;;;32.50;23.50;;;;;6.61;70.68;102331.31;5040637;28;46654;-52
2021/12/20 08:18:22;;;;;;;;;28.00;22.25;;;;;6.63;70.82;102332.97;5038276;28;45339;-54
2021/12/20 08:20:47;;;;;;;;;22.00;19.75;;;;;6.63;70.68;102335.59;5037818;28;45211;-53
2021/12/20 08:23:13;;;;;;;;;29.75;22.00;;;;;6.62;70.40;102338.34;5038948;28;45248;-53
2021/12/20 08:25:39;;;;;;;;;32.25;23.50;;;;;6.63;70.15;102338.25;5038376;28;46457;-52
2021/12/20 08:28:08;;;;;;;;;40.75;25.25;;;;;6.60;70.21;102343.69;5038256;28;45202;-54
2021/12/20 08:30:33;;;;;;;;;29.50;21.50;;;;;6.52;69.96;102342.41;5038565;28;45377;-55
2021/12/20 08:33:00;;;;;;;;;29.00;22.00;;;;;6.63;70.74;102355.91;5038529;28;45390;-53
2021/12/20 08:35:25;;;;;;;;;25.25;16.00;;;;;6.64;70.30;102360.25;5038193;28;47219;-54
2021/12/20 08:37:53;;;;;;;;;27.50;24.75;;;;;6.66;70.12;102353.13;5038182;28;45324;-51
2021/12/20 08:40:19;;;;;;;;;33.75;21.50;;;;;6.69;70.55;102355.56;5038107;28;45230;-53
2021/12/20 08:42:45;;;;;;;;;25.75;20.25;;;;;6.11;70.53;102277.59;5038303;28;45324;-53
2021/12/20 08:45:13;;;;;;;;;43.25;25.00;;;;;6.67;69.32;102358.31;5037812;28;45983;-53
2021/12/20 08:47:38;;;;;;;;;30.50;23.50;;;;;6.66;70.05;102358.41;5038059;28;45319;-51
2021/12/20 08:50:07;;;;;;;;;43.25;25.75;;;;;6.63;69.47;102361.19;5038316;28;45396;-53
2021/12/20 08:52:32;;;;;;;;;37.50;22.25;;;;;6.70;70.15;102373.13;5038145;28;45214;-51
2021/12/20 08:54:58;;;;;;;;;27.25;20.50;;;;;6.68;69.74;102364.44;5037938;28;45633;-52
2021/12/20 08:57:23;;;;;;;;;25.25;19.25;;;;;6.66;69.25;102366.34;5037901;28;45396;-53
2021/12/20 08:59:49;;;;;;;;;27.75;18.75;;;;;6.64;69.08;102368.19;5037900;28;45346;-53
2021/12/20 09:02:14;;;;;;;;;28.00;23.50;;;;;6.60;68.60;102367.50;5038328;28;45228;-54
2021/12/20 09:04:40;;;;;;;;;36.00;21.25;;;;;6.64;69.51;102379.63;5037793;28;45467;-52
2021/12/20 09:07:07;;;;;;;;;35.00;23.75;;;;;6.64;69.42;102382.25;5037928;28;45998;-53
2021/12/20 09:09:37;;;;;;;;;33.75;20.25;;;;;6.63;68.34;102379.72;5038215;28;45333;-53
2021/12/20 09:12:05;;;;;;;;;30.25;25.50;;;;;6.50;68.88;102366.28;5037969;28;45405;-54
2021/12/20 09:14:33;;;;;;;;;30.00;24.50;;;;;6.62;68.92;102376.22;5037404;28;46323;-51
2021/12/20 09:16:59;;;;;;;;;29.75;21.75;;;;;6.62;68.46;102373.56;5037442;28;45406;-54
2021/12/20 09:19:25;;;;;;;;;25.50;21.25;;;;;6.49;68.35;102357.50;5037736;28;45254;-53
2021/12/20 09:21:50;;;;;;;;;34.25;26.25;;;;;6.61;68.23;102384.22;5037750;28;45305;-54
2021/12/20 09:24:15;;;;;;;;;35.50;26.25;;;;;6.60;68.26;102377.22;5037451;28;45383;-52
2021/12/20 09:26:41;;;;;;;;;29.00;22.50;;;;;6.57;68.55;102372.09;5037488;28;45389;-53
2021/12/20 09:29:06;;;;;;;;;29.75;18.75;;;;;6.62;68.39;102378.88;5037370;28;45289;-52
2021/12/20 09:31:32;;;;;;;;;31.50;24.25;;;;;6.65;68.41;102375.19;5037846;28;45345;-51
2021/12/20 09:33:58;;;;;;;;;37.50;26.25;;;;;6.69;67.92;102379.38;5037296;28;46084;-53
2021/12/20 09:36:29;;;;;;;;;29.75;21.00;;;;;6.57;67.96;102361.50;5037314;28;45410;-52
2021/12/20 09:38:55;;;;;;;;;31.75;28.00;;;;;6.72;68.46;102385.34;5037309;28;45440;-54
2021/12/20 09:41:59;;;;;;;;;29.25;25.25;;;;;6.68;67.86;102370.59;5037449;28;45443;-49
2021/12/20 09:44:08;;;;;;;;;26.50;16.75;;;;;6.73;68.16;102378.28;5036878;28;46280;-51
2021/12/20 09:46:33;;;;;;;;;38.50;26.75;;;;;6.75;67.80;102379.91;5037224;28;45254;-50
2021/12/20 09:48:59;;;;;;;;;38.25;21.75;;;;;6.73;67.98;102378.28;5037232;28;45337;-52
2021/12/20 09:51:25;;;;;;;;;29.00;26.50;;;;;6.75;67.84;102371.97;5037426;28;45533;-52
2021/12/20 09:53:51;;;;;;;;;43.00;27.50;;;;;6.78;67.74;102383.31;5036784;28;47203;-53
2021/12/20 09:56:24;;;;;;;;;41.25;26.25;;;;;6.80;68.28;102379.66;5037106;28;45299;-52
2021/12/20 09:58:52;;;;;;;;;34.00;23.00;;;;;6.82;67.65;102387.50;5036855;28;45393;-53
2021/12/20 10:01:19;;;;;;;;;34.75;24.50;;;;;6.81;67.57;102380.50;5036880;28;45487;-52
2021/12/20 10:03:45;;;;;;;;;39.75;23.50;;;;;6.79;67.43;102377.97;5036702;28;45346;-52
2021/12/20 10:06:10;;;;;;;;;25.50;21.75;;;;;6.82;68.01;102387.50;5035327;28;45724;-53
2021/12/20 10:08:41;;;;;;;;;31.25;21.25;;;;;6.80;67.52;102384.09;5037031;28;45345;-51
2021/12/20 10:11:18;;;;;;;;;28.75;14.25;;;;;6.71;67.36;102372.22;5036982;28;45366;-49
2021/12/20 10:13:43;;;;;;;;;30.50;20.25;;;;;6.80;67.68;102389.41;5036420;28;46887;-54
2021/12/20 10:16:21;;;;;;;;;22.75;19.00;;;;;6.79;68.05;102398.28;5036234;28;45388;-53
2021/12/20 10:18:48;;;;;;;;;25.75;17.00;;;;;6.80;67.88;102392.03;5037011;28;45409;-52
2021/12/20 10:21:14;;;;;;;;;29.50;20.25;;;;;6.81;67.65;102385.81;5037043;28;45391;-52
2021/12/20 10:23:45;;;;;;;;;28.00;23.50;;;;;6.79;67.10;102379.75;5036315;28;46019;-53
2021/12/20 10:26:14;;;;;;;;;22.50;18.75;;;;;6.67;67.07;102366.25;5036527;28;45334;-53
2021/12/20 10:28:40;;;;;;;;;34.00;26.00;;;;;6.77;67.70;102378.97;5036485;28;45555;-52
2021/12/20 10:31:13;;;;;;;;;20.75;16.50;;;;;6.83;68.11;102383.94;5036634;28;45469;-50
2021/12/20 10:33:39;;;;;;;;;30.50;21.25;;;;;6.84;66.65;102385.66;5036495;28;45283;-52
2021/12/20 10:36:13;;;;;;;;;17.75;12.00;;;;;6.85;66.96;102390.84;5036318;28;45507;-51
2021/12/20 10:38:49;;;;;;;;;14.25;12.25;;;;;6.82;66.47;102383.06;5036495;28;45310;-51
2021/12/20 10:41:22;;;;;;;;;18.50;17.00;;;;;6.80;67.10;102374.38;5039212;28;45471;-48
2021/12/20 10:43:51;;;;;;;;;25.75;20.00;;;;;6.78;67.25;102373.59;5039942;28;45625;-50
2021/12/20 10:46:20;;;;;;;;;22.00;18.00;;;;;6.80;66.86;102369.09;5039630;28;45160;-50
2021/12/20 10:48:51;;;;;;;;;27.25;20.50;;;;;6.79;67.05;102366.53;5040323;28;45325;-54
2021/12/20 10:51:25;;;;;;;;;29.25;21.00;;;;;6.79;67.20;102364.75;5040352;28;45343;-52
2021/12/20 10:53:59;;;;;;;;;15.25;12.00;;;;;6.81;67.19;102369.94;5039831;28;46102;-50
2021/12/20 10:56:26;;;;;;;;;18.50;14.00;;;;;6.77;66.70;102371.03;5039661;28;45331;-51
2021/12/20 10:58:53;;;;;;;;;19.25;15.25;;;;;6.74;66.67;102365.00;5039354;28;45495;-53
2021/12/20 11:01:23;;;;;;;;;23.50;12.00;;;;;6.38;67.29;102308.78;5039132;28;45369;-52
2021/12/20 11:04:10;;;;;;;;;17.25;13.00;;;;;6.36;67.55;102305.34;5038888;28;45392;-53
2021/12/20 11:09:23;;;;;;;;;12.00;12.00;;;;;6.62;66.68;102373.56;5039060;28;45180;-53
2021/12/20 11:11:54;;;;;;;;;8.25;8.25;;;;;6.64;66.85;102366.41;5039126;28;45490;-51
2021/12/20 11:14:25;;;;;;;;;19.75;14.75;;;;;6.64;67.09;102361.09;5038730;28;45219;-54
2021/12/20 11:16:57;;;;;;;;;13.75;12.00;;;;;6.57;66.62;102340.34;5038444;28;45456;-54
2021/12/20 11:19:35;;;;;;;;;8.50;8.50;;;;;6.65;66.55;102354.03;5038702;28;45282;-52
2021/12/20 11:22:07;;;;;;;;;15.25;8.75;;;;;6.65;66.60;102356.66;5039060;28;45487;-53
2021/12/20 11:24:50;;;;;;;;;12.25;8.50;;;;;6.65;66.68;102344.28;5038534;28;47205;-54
2021/12/20 11:27:20;;;;;;;;;15.00;11.00;;;;;6.66;66.80;102343.38;5038551;28;45244;-52
2021/12/20 11:29:47;;;;;;;;;16.75;13.00;;;;;6.67;66.54;102345.09;5038692;28;45327;-52
2021/12/20 11:32:14;;;;;;;;;18.50;11.00;;;;;6.67;67.10;102336.31;5038663;28;45212;-52